sensor_id;sensor_type;location;lat;lon;timestamp;temperature;humidity
22319;DHT22;11327;52.334;9.506;2022-07-09T00:02:29;16.50;99.90
22319;DHT22;11327;52.334;9.506;2022-07-09T00:05:50;16.50;99.90
22319;DHT22;11327;52.334;9.506;2022-07-09T00:09:11;16.50;99.90
22319;DHT22;11327;52.334;9.506;2022-07-09T00:12:33;16.50;99.90
22319;DHT22;11327;52.334;9.506;2022-07-09T00:15:54;16.50;99.90
22319;DHT22;11327;52.334;9.506;2022-07-09T00:19:15;16.40;99.90
22319;DHT22;11327;52.334;9.506;2022-07-09T00:22:36;16.40;99.90
22319;DHT22;11327;52.334;9.506;2022-07-09T00:25:57;16.40;99.90
22319;DHT22;11327;52.334;9.506;2022-07-09T00:29:18;16.40;99.90
22319;DHT22;11327;52.334;9.506;2022-07-09T00:32:39;16.40;99.90
22319;DHT22;11327;52.334;9.506;2022-07-09T00:36:00;16.40;99.90
22319;DHT22;11327;52.334;9.506;2022-07-09T00:39:21;16.40;99.90
22319;DHT22;11327;52.334;9.506;2022-07-09T00:42:42;16.40;99.90
22319;DHT22;11327;52.334;9.506;2022-07-09T00:46:03;16.30;99.90
22319;DHT22;11327;52.334;9.506;2022-07-09T00:49:25;16.30;99.90
22319;DHT22;11327;52.334;9.506;2022-07-09T00:52:48;16.30;99.90
22319;DHT22;11327;52.334;9.506;2022-07-09T00:56:11;16.30;99.90
22319;DHT22;11327;52.334;9.506;2022-07-09T00:59:33;16.30;99.90
22319;DHT22;11327;52.334;9.506;2022-07-09T01:02:55;16.30;99.90
22319;DHT22;11327;52.334;9.506;2022-07-09T01:06:16;16.30;99.90
22319;DHT22;11327;52.334;9.506;2022-07-09T01:09:37;16.30;99.90
22319;DHT22;11327;52.334;9.506;2022-07-09T01:12:59;16.30;99.90
22319;DHT22;11327;52.334;9.506;2022-07-09T01:16:21;16.30;99.90
22319;DHT22;11327;52.334;9.506;2022-07-09T01:19:43;16.20;99.90
22319;DHT22;11327;52.334;9.506;2022-07-09T01:23:04;16.20;99.90
22319;DHT22;11327;52.334;9.506;2022-07-09T01:26:25;16.20;99.90
22319;DHT22;11327;52.334;9.506;2022-07-09T01:29:46;16.10;99.90
22319;DHT22;11327;52.334;9.506;2022-07-09T01:33:09;16.10;99.90
22319;DHT22;11327;52.334;9.506;2022-07-09T01:36:30;16.10;99.90
22319;DHT22;11327;52.334;9.506;2022-07-09T01:39:51;16.00;99.90
22319;DHT22;11327;52.334;9.506;2022-07-09T01:43:12;16.00;99.90
22319;DHT22;11327;52.334;9.506;2022-07-09T01:46:34;16.00;99.90
22319;DHT22;11327;52.334;9.506;2022-07-09T01:49:56;16.00;99.90
22319;DHT22;11327;52.334;9.506;2022-07-09T01:53:17;16.00;99.90
22319;DHT22;11327;52.334;9.506;2022-07-09T01:56:38;16.00;99.90
22319;DHT22;11327;52.334;9.506;2022-07-09T01:59:59;16.00;99.90
22319;DHT22;11327;52.334;9.506;2022-07-09T02:03:20;15.90;99.90
22319;DHT22;11327;52.334;9.506;2022-07-09T02:06:43;15.90;99.90
22319;DHT22;11327;52.334;9.506;2022-07-09T02:10:04;15.90;99.90
22319;DHT22;11327;52.334;9.506;2022-07-09T02:13:25;15.80;99.90
22319;DHT22;11327;52.334;9.506;2022-07-09T02:16:47;15.80;99.90
22319;DHT22;11327;52.334;9.506;2022-07-09T02:20:08;15.90;99.90
22319;DHT22;11327;52.334;9.506;2022-07-09T02:23:29;15.90;99.90
22319;DHT22;11327;52.334;9.506;2022-07-09T02:26:50;15.90;99.90
22319;DHT22;11327;52.334;9.506;2022-07-09T02:30:11;15.90;99.90
22319;DHT22;11327;52.334;9.506;2022-07-09T02:33:33;15.90;99.90
22319;DHT22;11327;52.334;9.506;2022-07-09T02:36:54;15.90;99.90
22319;DHT22;11327;52.334;9.506;2022-07-09T02:40:15;15.90;99.90
22319;DHT22;11327;52.334;9.506;2022-07-09T02:43:36;16.00;99.90
22319;DHT22;11327;52.334;9.506;2022-07-09T02:46:57;16.00;99.90
22319;DHT22;11327;52.334;9.506;2022-07-09T02:50:19;16.00;99.90
22319;DHT22;11327;52.334;9.506;2022-07-09T02:53:40;16.00;99.90
22319;DHT22;11327;52.334;9.506;2022-07-09T02:57:02;16.00;99.90
22319;DHT22;11327;52.334;9.506;2022-07-09T03:00:23;16.00;99.90
22319;DHT22;11327;52.334;9.506;2022-07-09T03:03:44;16.00;99.90
22319;DHT22;11327;52.334;9.506;2022-07-09T03:07:05;16.00;99.90
22319;DHT22;11327;52.334;9.506;2022-07-09T03:10:26;16.10;99.90
22319;DHT22;11327;52.334;9.506;2022-07-09T03:13:47;16.00;99.90
22319;DHT22;11327;52.334;9.506;2022-07-09T03:17:08;16.10;99.90
22319;DHT22;11327;52.334;9.506;2022-07-09T03:20:29;16.10;99.90
22319;DHT22;11327;52.334;9.506;2022-07-09T03:23:50;16.10;99.90
22319;DHT22;11327;52.334;9.506;2022-07-09T03:27:10;16.00;99.90
22319;DHT22;11327;52.334;9.506;2022-07-09T03:30:32;16.00;99.90
22319;DHT22;11327;52.334;9.506;2022-07-09T03:33:53;16.00;99.90
22319;DHT22;11327;52.334;9.506;2022-07-09T03:37:14;16.00;99.90
22319;DHT22;11327;52.334;9.506;2022-07-09T03:40:35;16.10;99.90
22319;DHT22;11327;52.334;9.506;2022-07-09T03:43:56;16.10;99.90
22319;DHT22;11327;52.334;9.506;2022-07-09T03:47:17;16.10;99.90
22319;DHT22;11327;52.334;9.506;2022-07-09T03:50:38;16.20;99.90
22319;DHT22;11327;52.334;9.506;2022-07-09T03:53:59;16.20;99.90
22319;DHT22;11327;52.334;9.506;2022-07-09T03:57:21;16.20;99.90
22319;DHT22;11327;52.334;9.506;2022-07-09T04:00:42;16.20;99.90
22319;DHT22;11327;52.334;9.506;2022-07-09T04:04:03;16.20;99.90
22319;DHT22;11327;52.334;9.506;2022-07-09T04:07:24;16.20;99.90
22319;DHT22;11327;52.334;9.506;2022-07-09T04:10:47;16.20;99.90
22319;DHT22;11327;52.334;9.506;2022-07-09T04:14:08;16.30;99.90
22319;DHT22;11327;52.334;9.506;2022-07-09T04:17:29;16.30;99.90
22319;DHT22;11327;52.334;9.506;2022-07-09T04:20:50;16.30;99.90
22319;DHT22;11327;52.334;9.506;2022-07-09T04:24:11;16.30;99.90
22319;DHT22;11327;52.334;9.506;2022-07-09T04:27:32;16.30;99.90
22319;DHT22;11327;52.334;9.506;2022-07-09T04:30:56;16.30;99.90
22319;DHT22;11327;52.334;9.506;2022-07-09T04:34:17;16.40;99.90
22319;DHT22;11327;52.334;9.506;2022-07-09T04:37:38;16.40;99.90
22319;DHT22;11327;52.334;9.506;2022-07-09T04:40:59;16.40;99.90
22319;DHT22;11327;52.334;9.506;2022-07-09T04:44:20;16.40;99.90
22319;DHT22;11327;52.334;9.506;2022-07-09T04:47:41;16.50;99.90
22319;DHT22;11327;52.334;9.506;2022-07-09T04:51:02;16.50;99.90
22319;DHT22;11327;52.334;9.506;2022-07-09T04:54:23;16.50;99.90
22319;DHT22;11327;52.334;9.506;2022-07-09T04:57:44;16.50;99.90
22319;DHT22;11327;52.334;9.506;2022-07-09T05:01:05;16.50;99.90
22319;DHT22;11327;52.334;9.506;2022-07-09T05:04:26;16.50;99.90
22319;DHT22;11327;52.334;9.506;2022-07-09T05:07:47;16.60;99.90
22319;DHT22;11327;52.334;9.506;2022-07-09T05:11:08;16.60;99.90
22319;DHT22;11327;52.334;9.506;2022-07-09T05:14:30;16.70;99.90
22319;DHT22;11327;52.334;9.506;2022-07-09T05:17:52;16.60;99.90
22319;DHT22;11327;52.334;9.506;2022-07-09T05:21:13;16.70;99.90
22319;DHT22;11327;52.334;9.506;2022-07-09T05:24:34;16.80;99.90
22319;DHT22;11327;52.334;9.506;2022-07-09T05:27:55;16.80;99.90
22319;DHT22;11327;52.334;9.506;2022-07-09T05:31:16;16.90;99.90
22319;DHT22;11327;52.334;9.506;2022-07-09T05:34:37;16.80;99.90
22319;DHT22;11327;52.334;9.506;2022-07-09T05:37:58;16.80;99.90
22319;DHT22;11327;52.334;9.506;2022-07-09T05:41:19;17.00;99.90
22319;DHT22;11327;52.334;9.506;2022-07-09T05:44:42;17.10;99.90
22319;DHT22;11327;52.334;9.506;2022-07-09T05:48:04;17.10;99.90
22319;DHT22;11327;52.334;9.506;2022-07-09T05:51:25;17.20;99.90
22319;DHT22;11327;52.334;9.506;2022-07-09T05:54:46;17.30;99.90
22319;DHT22;11327;52.334;9.506;2022-07-09T05:58:07;17.30;99.90
22319;DHT22;11327;52.334;9.506;2022-07-09T06:01:28;17.30;99.90
22319;DHT22;11327;52.334;9.506;2022-07-09T06:04:49;17.40;99.90
22319;DHT22;11327;52.334;9.506;2022-07-09T06:08:10;17.50;99.90
22319;DHT22;11327;52.334;9.506;2022-07-09T06:11:31;17.50;99.90
22319;DHT22;11327;52.334;9.506;2022-07-09T06:14:52;17.60;99.90
22319;DHT22;11327;52.334;9.506;2022-07-09T06:18:13;17.80;99.90
22319;DHT22;11327;52.334;9.506;2022-07-09T06:21:34;17.80;99.90
22319;DHT22;11327;52.334;9.506;2022-07-09T06:24:55;17.80;99.90
22319;DHT22;11327;52.334;9.506;2022-07-09T06:28:16;17.90;99.90
22319;DHT22;11327;52.334;9.506;2022-07-09T06:31:37;17.90;99.90
22319;DHT22;11327;52.334;9.506;2022-07-09T06:34:58;18.10;99.90
22319;DHT22;11327;52.334;9.506;2022-07-09T06:38:19;18.00;99.90
22319;DHT22;11327;52.334;9.506;2022-07-09T06:41:40;18.00;99.90
22319;DHT22;11327;52.334;9.506;2022-07-09T06:45:01;18.10;99.90
22319;DHT22;11327;52.334;9.506;2022-07-09T06:48:22;18.10;99.90
22319;DHT22;11327;52.334;9.506;2022-07-09T06:51:43;18.10;99.90
22319;DHT22;11327;52.334;9.506;2022-07-09T06:55:04;18.30;99.90
22319;DHT22;11327;52.334;9.506;2022-07-09T06:58:26;18.20;99.90
22319;DHT22;11327;52.334;9.506;2022-07-09T07:01:47;18.40;99.90
22319;DHT22;11327;52.334;9.506;2022-07-09T07:05:08;18.50;99.90
22319;DHT22;11327;52.334;9.506;2022-07-09T07:08:29;18.70;99.90
22319;DHT22;11327;52.334;9.506;2022-07-09T07:11:50;18.70;99.90
22319;DHT22;11327;52.334;9.506;2022-07-09T07:15:11;18.80;99.90
22319;DHT22;11327;52.334;9.506;2022-07-09T07:18:32;18.80;99.90
22319;DHT22;11327;52.334;9.506;2022-07-09T07:21:53;18.90;99.90
22319;DHT22;11327;52.334;9.506;2022-07-09T07:25:14;19.10;99.90
22319;DHT22;11327;52.334;9.506;2022-07-09T07:28:35;19.30;99.90
22319;DHT22;11327;52.334;9.506;2022-07-09T07:31:56;19.50;99.90
22319;DHT22;11327;52.334;9.506;2022-07-09T07:35:18;19.60;99.90
22319;DHT22;11327;52.334;9.506;2022-07-09T07:38:39;19.70;99.90
22319;DHT22;11327;52.334;9.506;2022-07-09T07:42:00;19.70;99.90
22319;DHT22;11327;52.334;9.506;2022-07-09T07:45:21;19.80;99.90
22319;DHT22;11327;52.334;9.506;2022-07-09T07:48:42;19.90;99.90
22319;DHT22;11327;52.334;9.506;2022-07-09T07:52:04;20.00;99.90
22319;DHT22;11327;52.334;9.506;2022-07-09T07:55:25;20.00;99.90
22319;DHT22;11327;52.334;9.506;2022-07-09T07:58:46;19.90;99.90
22319;DHT22;11327;52.334;9.506;2022-07-09T08:02:07;19.90;99.90
22319;DHT22;11327;52.334;9.506;2022-07-09T08:05:28;20.00;99.90
22319;DHT22;11327;52.334;9.506;2022-07-09T08:08:50;19.80;99.90
22319;DHT22;11327;52.334;9.506;2022-07-09T08:12:11;19.80;99.90
22319;DHT22;11327;52.334;9.506;2022-07-09T08:15:32;19.80;99.90
22319;DHT22;11327;52.334;9.506;2022-07-09T08:18:53;20.00;99.90
22319;DHT22;11327;52.334;9.506;2022-07-09T08:22:14;20.00;99.90
22319;DHT22;11327;52.334;9.506;2022-07-09T08:25:35;19.90;99.90
22319;DHT22;11327;52.334;9.506;2022-07-09T08:28:56;19.90;99.90
22319;DHT22;11327;52.334;9.506;2022-07-09T08:32:17;19.80;99.90
22319;DHT22;11327;52.334;9.506;2022-07-09T08:35:38;19.80;99.90
22319;DHT22;11327;52.334;9.506;2022-07-09T08:38:59;19.70;99.90
22319;DHT22;11327;52.334;9.506;2022-07-09T08:42:20;19.70;99.90
22319;DHT22;11327;52.334;9.506;2022-07-09T08:45:42;19.70;99.90
22319;DHT22;11327;52.334;9.506;2022-07-09T08:49:04;19.70;99.90
22319;DHT22;11327;52.334;9.506;2022-07-09T08:52:27;19.80;99.90
22319;DHT22;11327;52.334;9.506;2022-07-09T08:55:48;19.80;99.90
22319;DHT22;11327;52.334;9.506;2022-07-09T08:59:09;19.80;99.90
22319;DHT22;11327;52.334;9.506;2022-07-09T09:02:39;19.80;99.90
22319;DHT22;11327;52.334;9.506;2022-07-09T09:09:25;19.80;99.90
22319;DHT22;11327;52.334;9.506;2022-07-09T09:12:46;19.70;99.90
22319;DHT22;11327;52.334;9.506;2022-07-09T09:16:09;19.80;99.90
22319;DHT22;11327;52.334;9.506;2022-07-09T09:19:30;19.70;99.90
22319;DHT22;11327;52.334;9.506;2022-07-09T09:22:53;19.80;99.90
22319;DHT22;11327;52.334;9.506;2022-07-09T09:26:25;19.80;99.90
22319;DHT22;11327;52.334;9.506;2022-07-09T09:29:52;19.80;99.90
22319;DHT22;11327;52.334;9.506;2022-07-09T09:33:14;19.80;99.90
22319;DHT22;11327;52.334;9.506;2022-07-09T09:36:38;19.90;99.90
22319;DHT22;11327;52.334;9.506;2022-07-09T09:40:08;20.00;99.90
22319;DHT22;11327;52.334;9.506;2022-07-09T09:43:31;20.30;99.90
22319;DHT22;11327;52.334;9.506;2022-07-09T09:46:54;20.50;99.90
22319;DHT22;11327;52.334;9.506;2022-07-09T09:50:22;20.60;99.90
22319;DHT22;11327;52.334;9.506;2022-07-09T09:53:40;20.60;99.90
22319;DHT22;11327;52.334;9.506;2022-07-09T09:57:11;20.70;99.90
22319;DHT22;11327;52.334;9.506;2022-07-09T10:00:30;20.70;99.90
22319;DHT22;11327;52.334;9.506;2022-07-09T10:03:51;20.80;99.90
22319;DHT22;11327;52.334;9.506;2022-07-09T10:07:14;20.80;99.90
22319;DHT22;11327;52.334;9.506;2022-07-09T10:10:35;20.90;99.90
22319;DHT22;11327;52.334;9.506;2022-07-09T10:13:56;21.20;99.90
22319;DHT22;11327;52.334;9.506;2022-07-09T10:17:17;21.40;99.90
22319;DHT22;11327;52.334;9.506;2022-07-09T10:20:42;21.40;99.90
22319;DHT22;11327;52.334;9.506;2022-07-09T10:24:04;21.30;99.90
22319;DHT22;11327;52.334;9.506;2022-07-09T10:27:25;21.70;99.90
22319;DHT22;11327;52.334;9.506;2022-07-09T10:30:47;22.00;99.90
22319;DHT22;11327;52.334;9.506;2022-07-09T10:34:10;22.10;99.90
22319;DHT22;11327;52.334;9.506;2022-07-09T10:41:00;22.00;99.90
22319;DHT22;11327;52.334;9.506;2022-07-09T10:44:33;22.10;99.90
22319;DHT22;11327;52.334;9.506;2022-07-09T10:47:57;21.90;99.90
22319;DHT22;11327;52.334;9.506;2022-07-09T10:51:19;21.90;99.90
22319;DHT22;11327;52.334;9.506;2022-07-09T10:54:47;21.90;99.90
22319;DHT22;11327;52.334;9.506;2022-07-09T10:58:19;21.90;99.90
22319;DHT22;11327;52.334;9.506;2022-07-09T11:01:40;21.80;99.90
22319;DHT22;11327;52.334;9.506;2022-07-09T11:05:01;21.80;99.90
22319;DHT22;11327;52.334;9.506;2022-07-09T11:08:22;21.90;99.90
22319;DHT22;11327;52.334;9.506;2022-07-09T11:11:44;21.90;99.90
22319;DHT22;11327;52.334;9.506;2022-07-09T11:15:15;21.90;99.90
22319;DHT22;11327;52.334;9.506;2022-07-09T11:18:32;21.90;99.90
22319;DHT22;11327;52.334;9.506;2022-07-09T11:22:03;22.10;99.90
22319;DHT22;11327;52.334;9.506;2022-07-09T11:25:24;22.30;99.90
22319;DHT22;11327;52.334;9.506;2022-07-09T11:28:46;22.60;99.90
22319;DHT22;11327;52.334;9.506;2022-07-09T11:32:10;22.90;99.90
22319;DHT22;11327;52.334;9.506;2022-07-09T11:35:34;23.10;99.90
22319;DHT22;11327;52.334;9.506;2022-07-09T11:38:55;23.20;99.90
22319;DHT22;11327;52.334;9.506;2022-07-09T11:42:18;23.00;99.90
22319;DHT22;11327;52.334;9.506;2022-07-09T11:45:39;23.00;99.90
22319;DHT22;11327;52.334;9.506;2022-07-09T11:49:00;23.30;99.90
22319;DHT22;11327;52.334;9.506;2022-07-09T11:52:26;23.50;99.90
22319;DHT22;11327;52.334;9.506;2022-07-09T11:55:56;23.60;99.90
22319;DHT22;11327;52.334;9.506;2022-07-09T11:59:09;23.90;99.90
22319;DHT22;11327;52.334;9.506;2022-07-09T12:02:33;24.20;99.90
22319;DHT22;11327;52.334;9.506;2022-07-09T12:05:54;24.30;99.90
22319;DHT22;11327;52.334;9.506;2022-07-09T12:09:15;24.30;99.90
22319;DHT22;11327;52.334;9.506;2022-07-09T12:12:37;24.40;99.90
22319;DHT22;11327;52.334;9.506;2022-07-09T12:15:58;24.30;99.90
22319;DHT22;11327;52.334;9.506;2022-07-09T12:19:19;24.60;99.90
22319;DHT22;11327;52.334;9.506;2022-07-09T12:22:40;24.60;99.90
22319;DHT22;11327;52.334;9.506;2022-07-09T12:26:02;24.90;99.90
22319;DHT22;11327;52.334;9.506;2022-07-09T12:29:23;25.30;99.90
22319;DHT22;11327;52.334;9.506;2022-07-09T12:32:45;25.30;99.90
22319;DHT22;11327;52.334;9.506;2022-07-09T12:36:07;25.50;99.90
22319;DHT22;11327;52.334;9.506;2022-07-09T12:39:28;25.60;99.90
22319;DHT22;11327;52.334;9.506;2022-07-09T12:42:48;25.80;99.90
22319;DHT22;11327;52.334;9.506;2022-07-09T12:46:10;25.60;99.90
22319;DHT22;11327;52.334;9.506;2022-07-09T12:49:31;25.40;99.90
22319;DHT22;11327;52.334;9.506;2022-07-09T12:52:52;25.10;99.90
22319;DHT22;11327;52.334;9.506;2022-07-09T12:56:12;24.80;99.90
22319;DHT22;11327;52.334;9.506;2022-07-09T12:59:33;24.00;99.90
22319;DHT22;11327;52.334;9.506;2022-07-09T13:02:55;23.10;99.90
22319;DHT22;11327;52.334;9.506;2022-07-09T13:06:16;22.50;99.90
22319;DHT22;11327;52.334;9.506;2022-07-09T13:09:38;22.10;99.90
22319;DHT22;11327;52.334;9.506;2022-07-09T13:12:59;22.00;99.90
22319;DHT22;11327;52.334;9.506;2022-07-09T13:16:21;21.90;99.90
22319;DHT22;11327;52.334;9.506;2022-07-09T13:19:42;21.80;99.90
22319;DHT22;11327;52.334;9.506;2022-07-09T13:23:03;21.90;99.90
22319;DHT22;11327;52.334;9.506;2022-07-09T13:26:25;22.20;99.90
22319;DHT22;11327;52.334;9.506;2022-07-09T13:29:46;22.20;99.90
22319;DHT22;11327;52.334;9.506;2022-07-09T13:33:07;22.20;99.90
22319;DHT22;11327;52.334;9.506;2022-07-09T13:36:28;22.60;99.90
22319;DHT22;11327;52.334;9.506;2022-07-09T13:39:50;23.00;99.90
22319;DHT22;11327;52.334;9.506;2022-07-09T13:43:13;23.40;99.90
22319;DHT22;11327;52.334;9.506;2022-07-09T13:46:34;23.80;99.90
22319;DHT22;11327;52.334;9.506;2022-07-09T13:49:55;24.00;99.90
22319;DHT22;11327;52.334;9.506;2022-07-09T13:53:17;24.30;99.90
22319;DHT22;11327;52.334;9.506;2022-07-09T13:56:38;24.30;99.90
22319;DHT22;11327;52.334;9.506;2022-07-09T13:59:59;24.00;99.90
22319;DHT22;11327;52.334;9.506;2022-07-09T14:03:20;23.70;99.90
22319;DHT22;11327;52.334;9.506;2022-07-09T14:06:41;23.70;99.90
22319;DHT22;11327;52.334;9.506;2022-07-09T14:10:02;23.30;99.90
22319;DHT22;11327;52.334;9.506;2022-07-09T14:13:25;22.80;99.90
22319;DHT22;11327;52.334;9.506;2022-07-09T14:16:46;22.30;99.90
22319;DHT22;11327;52.334;9.506;2022-07-09T14:20:08;21.90;99.90
22319;DHT22;11327;52.334;9.506;2022-07-09T14:23:29;22.10;99.90
22319;DHT22;11327;52.334;9.506;2022-07-09T14:26:51;22.50;99.90
22319;DHT22;11327;52.334;9.506;2022-07-09T14:30:12;22.90;99.90
22319;DHT22;11327;52.334;9.506;2022-07-09T14:33:33;23.10;99.90
22319;DHT22;11327;52.334;9.506;2022-07-09T14:36:54;22.90;99.90
22319;DHT22;11327;52.334;9.506;2022-07-09T14:40:15;23.10;99.90
22319;DHT22;11327;52.334;9.506;2022-07-09T14:43:36;23.20;99.90
22319;DHT22;11327;52.334;9.506;2022-07-09T14:46:59;23.10;99.90
22319;DHT22;11327;52.334;9.506;2022-07-09T14:50:20;23.00;99.90
22319;DHT22;11327;52.334;9.506;2022-07-09T14:53:42;22.90;99.90
22319;DHT22;11327;52.334;9.506;2022-07-09T14:57:03;22.90;99.90
22319;DHT22;11327;52.334;9.506;2022-07-09T15:00:24;23.10;99.90
22319;DHT22;11327;52.334;9.506;2022-07-09T15:03:45;22.90;99.90
22319;DHT22;11327;52.334;9.506;2022-07-09T15:07:06;22.90;99.90
22319;DHT22;11327;52.334;9.506;2022-07-09T15:10:27;22.80;99.90
22319;DHT22;11327;52.334;9.506;2022-07-09T15:13:48;22.70;99.90
22319;DHT22;11327;52.334;9.506;2022-07-09T15:17:09;22.70;99.90
22319;DHT22;11327;52.334;9.506;2022-07-09T15:20:31;22.70;99.90
22319;DHT22;11327;52.334;9.506;2022-07-09T15:23:52;22.80;99.90
22319;DHT22;11327;52.334;9.506;2022-07-09T15:27:13;22.90;99.90
22319;DHT22;11327;52.334;9.506;2022-07-09T15:30:34;23.10;99.90
22319;DHT22;11327;52.334;9.506;2022-07-09T15:33:55;23.10;99.90
22319;DHT22;11327;52.334;9.506;2022-07-09T15:37:16;22.90;99.90
22319;DHT22;11327;52.334;9.506;2022-07-09T15:40:37;22.60;99.90
22319;DHT22;11327;52.334;9.506;2022-07-09T15:43:58;22.40;99.90
22319;DHT22;11327;52.334;9.506;2022-07-09T15:47:21;22.30;99.90
22319;DHT22;11327;52.334;9.506;2022-07-09T15:50:42;22.10;99.90
22319;DHT22;11327;52.334;9.506;2022-07-09T15:54:03;22.30;99.90
22319;DHT22;11327;52.334;9.506;2022-07-09T15:57:24;22.20;99.90
22319;DHT22;11327;52.334;9.506;2022-07-09T16:00:45;22.00;99.90
22319;DHT22;11327;52.334;9.506;2022-07-09T16:04:06;21.70;99.90
22319;DHT22;11327;52.334;9.506;2022-07-09T16:07:27;21.70;99.90
22319;DHT22;11327;52.334;9.506;2022-07-09T16:10:48;21.80;99.90
22319;DHT22;11327;52.334;9.506;2022-07-09T16:14:09;22.00;99.90
22319;DHT22;11327;52.334;9.506;2022-07-09T16:17:30;22.00;99.90
22319;DHT22;11327;52.334;9.506;2022-07-09T16:20:51;22.00;99.90
22319;DHT22;11327;52.334;9.506;2022-07-09T16:24:12;21.70;99.90
22319;DHT22;11327;52.334;9.506;2022-07-09T16:27:33;21.50;99.90
22319;DHT22;11327;52.334;9.506;2022-07-09T16:30:54;21.30;99.90
22319;DHT22;11327;52.334;9.506;2022-07-09T16:34:15;21.10;99.90
22319;DHT22;11327;52.334;9.506;2022-07-09T16:37:37;20.90;99.90
22319;DHT22;11327;52.334;9.506;2022-07-09T16:40:58;20.80;99.90
22319;DHT22;11327;52.334;9.506;2022-07-09T16:44:19;20.60;99.90
22319;DHT22;11327;52.334;9.506;2022-07-09T16:47:40;20.40;99.90
22319;DHT22;11327;52.334;9.506;2022-07-09T16:51:01;20.20;99.90
22319;DHT22;11327;52.334;9.506;2022-07-09T16:54:22;20.10;99.90
22319;DHT22;11327;52.334;9.506;2022-07-09T16:57:43;20.10;99.90
22319;DHT22;11327;52.334;9.506;2022-07-09T17:01:04;20.20;99.90
22319;DHT22;11327;52.334;9.506;2022-07-09T17:04:25;20.10;99.90
22319;DHT22;11327;52.334;9.506;2022-07-09T17:07:46;20.10;99.90
22319;DHT22;11327;52.334;9.506;2022-07-09T17:11:07;20.10;99.90
22319;DHT22;11327;52.334;9.506;2022-07-09T17:14:28;20.00;99.90
22319;DHT22;11327;52.334;9.506;2022-07-09T17:17:49;19.80;99.90
22319;DHT22;11327;52.334;9.506;2022-07-09T17:21:10;19.70;99.90
22319;DHT22;11327;52.334;9.506;2022-07-09T17:24:31;19.60;99.90
22319;DHT22;11327;52.334;9.506;2022-07-09T17:27:52;19.50;99.90
22319;DHT22;11327;52.334;9.506;2022-07-09T17:31:14;19.40;99.90
22319;DHT22;11327;52.334;9.506;2022-07-09T17:34:36;19.30;99.90
22319;DHT22;11327;52.334;9.506;2022-07-09T17:37:57;19.20;99.90
22319;DHT22;11327;52.334;9.506;2022-07-09T17:41:19;19.20;99.90
22319;DHT22;11327;52.334;9.506;2022-07-09T17:44:40;19.10;99.90
22319;DHT22;11327;52.334;9.506;2022-07-09T17:48:01;19.10;99.90
22319;DHT22;11327;52.334;9.506;2022-07-09T17:51:22;19.00;99.90
22319;DHT22;11327;52.334;9.506;2022-07-09T17:54:43;19.00;99.90
22319;DHT22;11327;52.334;9.506;2022-07-09T17:58:06;18.90;99.90
22319;DHT22;11327;52.334;9.506;2022-07-09T18:01:28;18.90;99.90
22319;DHT22;11327;52.334;9.506;2022-07-09T18:04:49;18.80;99.90
22319;DHT22;11327;52.334;9.506;2022-07-09T18:08:10;18.70;99.90
22319;DHT22;11327;52.334;9.506;2022-07-09T18:11:31;18.60;99.90
22319;DHT22;11327;52.334;9.506;2022-07-09T18:14:52;18.60;99.90
22319;DHT22;11327;52.334;9.506;2022-07-09T18:18:13;18.70;99.90
22319;DHT22;11327;52.334;9.506;2022-07-09T18:21:35;18.60;99.90
22319;DHT22;11327;52.334;9.506;2022-07-09T18:24:56;18.60;99.90
22319;DHT22;11327;52.334;9.506;2022-07-09T18:28:17;18.60;99.90
22319;DHT22;11327;52.334;9.506;2022-07-09T18:31:38;18.60;99.90
22319;DHT22;11327;52.334;9.506;2022-07-09T18:34:59;18.60;99.90
22319;DHT22;11327;52.334;9.506;2022-07-09T18:38:20;18.60;99.90
22319;DHT22;11327;52.334;9.506;2022-07-09T18:41:41;18.50;99.90
22319;DHT22;11327;52.334;9.506;2022-07-09T18:45:03;18.40;99.90
22319;DHT22;11327;52.334;9.506;2022-07-09T18:48:24;18.40;99.90
22319;DHT22;11327;52.334;9.506;2022-07-09T18:51:45;18.30;99.90
22319;DHT22;11327;52.334;9.506;2022-07-09T18:55:07;18.20;99.90
22319;DHT22;11327;52.334;9.506;2022-07-09T18:58:29;18.10;99.90
22319;DHT22;11327;52.334;9.506;2022-07-09T19:01:50;18.10;99.90
22319;DHT22;11327;52.334;9.506;2022-07-09T19:05:11;17.90;99.90
22319;DHT22;11327;52.334;9.506;2022-07-09T19:08:32;17.80;99.90
22319;DHT22;11327;52.334;9.506;2022-07-09T19:11:53;17.70;99.90
22319;DHT22;11327;52.334;9.506;2022-07-09T19:15:14;17.60;99.90
22319;DHT22;11327;52.334;9.506;2022-07-09T19:18:35;17.60;99.90
22319;DHT22;11327;52.334;9.506;2022-07-09T19:21:56;17.50;99.90
22319;DHT22;11327;52.334;9.506;2022-07-09T19:25:17;17.50;99.90
22319;DHT22;11327;52.334;9.506;2022-07-09T19:28:39;17.40;99.90
22319;DHT22;11327;52.334;9.506;2022-07-09T19:32:02;17.40;99.90
22319;DHT22;11327;52.334;9.506;2022-07-09T19:35:42;17.30;99.90
22319;DHT22;11327;52.334;9.506;2022-07-09T19:39:03;17.30;99.90
22319;DHT22;11327;52.334;9.506;2022-07-09T19:42:25;17.20;99.90
22319;DHT22;11327;52.334;9.506;2022-07-09T19:45:46;17.10;99.90
22319;DHT22;11327;52.334;9.506;2022-07-09T19:49:07;17.10;99.90
22319;DHT22;11327;52.334;9.506;2022-07-09T19:52:28;17.10;99.90
22319;DHT22;11327;52.334;9.506;2022-07-09T19:55:49;17.10;99.90
22319;DHT22;11327;52.334;9.506;2022-07-09T19:59:10;17.10;99.90
22319;DHT22;11327;52.334;9.506;2022-07-09T20:02:32;17.10;99.90
22319;DHT22;11327;52.334;9.506;2022-07-09T20:05:53;17.00;99.90
22319;DHT22;11327;52.334;9.506;2022-07-09T20:09:14;17.00;99.90
22319;DHT22;11327;52.334;9.506;2022-07-09T20:12:36;17.00;99.90
22319;DHT22;11327;52.334;9.506;2022-07-09T20:15:57;16.90;99.90
22319;DHT22;11327;52.334;9.506;2022-07-09T20:19:18;16.90;99.90
22319;DHT22;11327;52.334;9.506;2022-07-09T20:22:39;16.90;99.90
22319;DHT22;11327;52.334;9.506;2022-07-09T20:26:00;16.90;99.90
22319;DHT22;11327;52.334;9.506;2022-07-09T20:29:21;16.90;99.90
22319;DHT22;11327;52.334;9.506;2022-07-09T20:32:42;16.90;99.90
22319;DHT22;11327;52.334;9.506;2022-07-09T20:36:04;16.90;99.90
22319;DHT22;11327;52.334;9.506;2022-07-09T20:39:25;16.90;99.90
22319;DHT22;11327;52.334;9.506;2022-07-09T20:42:46;16.80;99.90
22319;DHT22;11327;52.334;9.506;2022-07-09T20:46:07;16.70;99.90
22319;DHT22;11327;52.334;9.506;2022-07-09T20:49:28;16.70;99.90
22319;DHT22;11327;52.334;9.506;2022-07-09T20:52:49;16.70;99.90
22319;DHT22;11327;52.334;9.506;2022-07-09T20:56:10;16.60;99.90
22319;DHT22;11327;52.334;9.506;2022-07-09T20:59:33;16.70;99.90
22319;DHT22;11327;52.334;9.506;2022-07-09T21:02:54;16.60;99.90
22319;DHT22;11327;52.334;9.506;2022-07-09T21:06:15;16.60;99.90
22319;DHT22;11327;52.334;9.506;2022-07-09T21:09:36;16.60;99.90
22319;DHT22;11327;52.334;9.506;2022-07-09T21:12:57;16.60;99.90
22319;DHT22;11327;52.334;9.506;2022-07-09T21:16:19;16.50;99.90
22319;DHT22;11327;52.334;9.506;2022-07-09T21:19:42;16.50;99.90